sensor_id;sensor_type;location;lat;lon;timestamp;P1;durP1;ratioP1;P2;durP2;ratioP2
11018;SDS011;5563;52.296;6.806;2023-06-10T00:01:45;5.53;;;4.13;;
11018;SDS011;5563;52.296;6.806;2023-06-10T00:04:18;4.95;;;4.30;;
11018;SDS011;5563;52.296;6.806;2023-06-10T00:06:54;5.03;;;4.53;;
11018;SDS011;5563;52.296;6.806;2023-06-10T00:09:27;8.18;;;4.72;;
11018;SDS011;5563;52.296;6.806;2023-06-10T00:12:02;7.10;;;4.82;;
11018;SDS011;5563;52.296;6.806;2023-06-10T00:14:34;4.70;;;4.18;;
11018;SDS011;5563;52.296;6.806;2023-06-10T00:17:13;5.50;;;4.28;;
11018;SDS011;5563;52.296;6.806;2023-06-10T00:19:48;6.43;;;4.72;;
11018;SDS011;5563;52.296;6.806;2023-06-10T00:22:17;7.43;;;5.00;;
11018;SDS011;5563;52.296;6.806;2023-06-10T00:24:50;7.43;;;5.05;;
11018;SDS011;5563;52.296;6.806;2023-06-10T00:27:17;5.45;;;4.60;;
11018;SDS011;5563;52.296;6.806;2023-06-10T00:29:51;5.53;;;4.57;;
11018;SDS011;5563;52.296;6.806;2023-06-10T00:32:17;6.15;;;4.75;;
11018;SDS011;5563;52.296;6.806;2023-06-10T00:34:51;6.68;;;5.00;;
11018;SDS011;5563;52.296;6.806;2023-06-10T00:37:18;7.05;;;4.57;;
11018;SDS011;5563;52.296;6.806;2023-06-10T00:39:57;5.85;;;4.80;;
11018;SDS011;5563;52.296;6.806;2023-06-10T00:42:38;5.68;;;4.70;;
11018;SDS011;5563;52.296;6.806;2023-06-10T00:45:12;5.25;;;4.22;;
11018;SDS011;5563;52.296;6.806;2023-06-10T00:47:39;5.78;;;4.40;;
11018;SDS011;5563;52.296;6.806;2023-06-10T00:50:13;5.30;;;4.80;;
11018;SDS011;5563;52.296;6.806;2023-06-10T00:52:47;5.07;;;4.57;;
11018;SDS011;5563;52.296;6.806;2023-06-10T00:55:21;6.03;;;4.55;;
11018;SDS011;5563;52.296;6.806;2023-06-10T00:57:55;6.18;;;4.43;;
11018;SDS011;5563;52.296;6.806;2023-06-10T01:00:29;6.40;;;4.60;;
11018;SDS011;5563;52.296;6.806;2023-06-10T01:02:56;6.80;;;5.25;;
11018;SDS011;5563;52.296;6.806;2023-06-10T01:05:30;5.75;;;4.82;;
11018;SDS011;5563;52.296;6.806;2023-06-10T01:08:09;9.35;;;5.30;;
11018;SDS011;5563;52.296;6.806;2023-06-10T01:10:51;6.13;;;4.90;;
11018;SDS011;5563;52.296;6.806;2023-06-10T01:13:28;7.53;;;4.68;;
11018;SDS011;5563;52.296;6.806;2023-06-10T01:16:02;6.75;;;4.90;;
11018;SDS011;5563;52.296;6.806;2023-06-10T01:18:36;5.88;;;5.00;;
11018;SDS011;5563;52.296;6.806;2023-06-10T01:21:05;6.55;;;5.40;;
11018;SDS011;5563;52.296;6.806;2023-06-10T01:23:40;7.65;;;5.05;;
11018;SDS011;5563;52.296;6.806;2023-06-10T01:26:08;7.40;;;4.72;;
11018;SDS011;5563;52.296;6.806;2023-06-10T01:28:47;8.68;;;5.70;;
11018;SDS011;5563;52.296;6.806;2023-06-10T01:34:08;6.40;;;4.97;;
11018;SDS011;5563;52.296;6.806;2023-06-10T01:36:38;5.82;;;5.10;;
11018;SDS011;5563;52.296;6.806;2023-06-10T01:39:14;5.22;;;4.30;;
11018;SDS011;5563;52.296;6.806;2023-06-10T01:41:43;7.57;;;5.38;;
11018;SDS011;5563;52.296;6.806;2023-06-10T01:44:30;8.18;;;5.35;;
11018;SDS011;5563;52.296;6.806;2023-06-10T01:47:05;7.85;;;5.63;;
11018;SDS011;5563;52.296;6.806;2023-06-10T01:49:39;6.43;;;5.50;;
11018;SDS011;5563;52.296;6.806;2023-06-10T01:52:06;9.07;;;5.47;;
11018;SDS011;5563;52.296;6.806;2023-06-10T01:54:33;9.55;;;5.70;;
11018;SDS011;5563;52.296;6.806;2023-06-10T01:57:08;6.35;;;5.25;;
11018;SDS011;5563;52.296;6.806;2023-06-10T01:59:35;10.10;;;6.00;;
11018;SDS011;5563;52.296;6.806;2023-06-10T02:02:09;6.53;;;4.80;;
11018;SDS011;5563;52.296;6.806;2023-06-10T02:04:36;7.35;;;5.40;;
11018;SDS011;5563;52.296;6.806;2023-06-10T02:07:10;6.85;;;5.68;;
11018;SDS011;5563;52.296;6.806;2023-06-10T02:09:39;6.28;;;5.60;;
11018;SDS011;5563;52.296;6.806;2023-06-10T02:12:13;7.88;;;6.20;;
11018;SDS011;5563;52.296;6.806;2023-06-10T02:14:43;6.88;;;5.80;;
11018;SDS011;5563;52.296;6.806;2023-06-10T02:17:17;7.13;;;5.38;;
11018;SDS011;5563;52.296;6.806;2023-06-10T02:19:45;7.22;;;5.72;;
11018;SDS011;5563;52.296;6.806;2023-06-10T02:22:25;7.95;;;5.90;;
11018;SDS011;5563;52.296;6.806;2023-06-10T02:24:53;5.95;;;5.25;;
11018;SDS011;5563;52.296;6.806;2023-06-10T02:27:27;9.88;;;6.38;;
11018;SDS011;5563;52.296;6.806;2023-06-10T02:29:54;10.38;;;5.28;;
11018;SDS011;5563;52.296;6.806;2023-06-10T02:32:29;8.40;;;5.97;;
11018;SDS011;5563;52.296;6.806;2023-06-10T02:34:56;9.27;;;5.65;;
11018;SDS011;5563;52.296;6.806;2023-06-10T02:37:32;8.75;;;5.70;;
11018;SDS011;5563;52.296;6.806;2023-06-10T02:40:06;6.80;;;5.32;;
11018;SDS011;5563;52.296;6.806;2023-06-10T02:42:46;8.80;;;5.68;;
11018;SDS011;5563;52.296;6.806;2023-06-10T02:45:21;5.80;;;5.20;;
11018;SDS011;5563;52.296;6.806;2023-06-10T02:47:48;9.60;;;6.07;;
11018;SDS011;5563;52.296;6.806;2023-06-10T02:50:23;8.43;;;5.68;;
11018;SDS011;5563;52.296;6.806;2023-06-10T02:52:50;7.72;;;5.80;;
11018;SDS011;5563;52.296;6.806;2023-06-10T02:55:24;9.18;;;5.80;;
11018;SDS011;5563;52.296;6.806;2023-06-10T02:57:53;9.27;;;6.13;;
11018;SDS011;5563;52.296;6.806;2023-06-10T03:00:27;7.38;;;6.22;;
11018;SDS011;5563;52.296;6.806;2023-06-10T03:02:55;8.85;;;5.60;;
11018;SDS011;5563;52.296;6.806;2023-06-10T03:05:31;6.60;;;5.88;;
11018;SDS011;5563;52.296;6.806;2023-06-10T03:07:59;7.65;;;5.75;;
11018;SDS011;5563;52.296;6.806;2023-06-10T03:10:26;8.05;;;5.75;;
11018;SDS011;5563;52.296;6.806;2023-06-10T03:13:00;7.50;;;6.03;;
11018;SDS011;5563;52.296;6.806;2023-06-10T03:15:27;7.90;;;6.15;;
11018;SDS011;5563;52.296;6.806;2023-06-10T03:18:02;6.85;;;6.15;;
11018;SDS011;5563;52.296;6.806;2023-06-10T03:20:29;6.30;;;5.53;;
11018;SDS011;5563;52.296;6.806;2023-06-10T03:23:04;8.98;;;5.80;;
11018;SDS011;5563;52.296;6.806;2023-06-10T03:25:32;6.80;;;5.47;;
11018;SDS011;5563;52.296;6.806;2023-06-10T03:28:06;6.63;;;5.90;;
11018;SDS011;5563;52.296;6.806;2023-06-10T03:30:33;9.60;;;6.18;;
11018;SDS011;5563;52.296;6.806;2023-06-10T03:33:00;6.13;;;5.53;;
11018;SDS011;5563;52.296;6.806;2023-06-10T03:35:35;8.20;;;6.22;;
11018;SDS011;5563;52.296;6.806;2023-06-10T03:38:08;6.40;;;5.72;;
11018;SDS011;5563;52.296;6.806;2023-06-10T03:40:41;7.22;;;5.90;;
11018;SDS011;5563;52.296;6.806;2023-06-10T03:43:20;7.40;;;5.88;;
11018;SDS011;5563;52.296;6.806;2023-06-10T03:45:54;7.15;;;5.40;;
11018;SDS011;5563;52.296;6.806;2023-06-10T03:48:28;7.53;;;5.75;;
11018;SDS011;5563;52.296;6.806;2023-06-10T03:50:57;6.32;;;5.47;;
11018;SDS011;5563;52.296;6.806;2023-06-10T03:53:31;6.68;;;5.75;;
11018;SDS011;5563;52.296;6.806;2023-06-10T03:55:58;6.55;;;5.95;;
11018;SDS011;5563;52.296;6.806;2023-06-10T03:58:31;6.97;;;5.78;;
11018;SDS011;5563;52.296;6.806;2023-06-10T04:01:05;8.68;;;5.70;;
11018;SDS011;5563;52.296;6.806;2023-06-10T04:03:42;8.23;;;5.97;;
11018;SDS011;5563;52.296;6.806;2023-06-10T04:06:16;8.27;;;6.28;;
11018;SDS011;5563;52.296;6.806;2023-06-10T04:08:43;6.97;;;6.03;;
11018;SDS011;5563;52.296;6.806;2023-06-10T04:11:18;7.97;;;6.22;;
11018;SDS011;5563;52.296;6.806;2023-06-10T04:13:45;6.70;;;5.25;;
11018;SDS011;5563;52.296;6.806;2023-06-10T04:16:18;7.30;;;6.13;;
11018;SDS011;5563;52.296;6.806;2023-06-10T04:18:45;6.88;;;6.18;;
11018;SDS011;5563;52.296;6.806;2023-06-10T04:21:18;6.70;;;6.00;;
11018;SDS011;5563;52.296;6.806;2023-06-10T04:23:48;8.75;;;5.95;;
11018;SDS011;5563;52.296;6.806;2023-06-10T04:26:22;6.93;;;5.88;;
11018;SDS011;5563;52.296;6.806;2023-06-10T04:28:49;7.50;;;6.00;;
11018;SDS011;5563;52.296;6.806;2023-06-10T04:31:23;7.53;;;5.90;;
11018;SDS011;5563;52.296;6.806;2023-06-10T04:33:50;8.73;;;6.22;;
11018;SDS011;5563;52.296;6.806;2023-06-10T04:36:24;6.85;;;5.40;;
11018;SDS011;5563;52.296;6.806;2023-06-10T04:38:51;6.47;;;5.88;;
11018;SDS011;5563;52.296;6.806;2023-06-10T04:41:18;5.95;;;5.35;;
11018;SDS011;5563;52.296;6.806;2023-06-10T04:43:52;8.23;;;5.82;;
11018;SDS011;5563;52.296;6.806;2023-06-10T04:46:25;8.55;;;5.93;;
11018;SDS011;5563;52.296;6.806;2023-06-10T04:48:59;8.63;;;5.97;;
11018;SDS011;5563;52.296;6.806;2023-06-10T04:51:29;7.72;;;6.00;;
11018;SDS011;5563;52.296;6.806;2023-06-10T04:54:02;9.63;;;5.50;;
11018;SDS011;5563;52.296;6.806;2023-06-10T04:56:35;7.82;;;5.93;;
11018;SDS011;5563;52.296;6.806;2023-06-10T04:59:09;9.88;;;5.72;;
11018;SDS011;5563;52.296;6.806;2023-06-10T05:01:36;7.95;;;6.43;;
11018;SDS011;5563;52.296;6.806;2023-06-10T05:04:09;7.75;;;6.20;;
11018;SDS011;5563;52.296;6.806;2023-06-10T05:06:43;8.20;;;5.60;;
11018;SDS011;5563;52.296;6.806;2023-06-10T05:09:10;7.05;;;5.63;;
11018;SDS011;5563;52.296;6.806;2023-06-10T05:11:44;6.25;;;5.22;;
11018;SDS011;5563;52.296;6.806;2023-06-10T05:14:11;6.00;;;5.10;;
11018;SDS011;5563;52.296;6.806;2023-06-10T05:16:45;7.97;;;6.18;;
11018;SDS011;5563;52.296;6.806;2023-06-10T05:19:12;8.88;;;6.93;;
11018;SDS011;5563;52.296;6.806;2023-06-10T05:21:45;7.60;;;5.80;;
11018;SDS011;5563;52.296;6.806;2023-06-10T05:24:12;8.15;;;5.88;;
11018;SDS011;5563;52.296;6.806;2023-06-10T05:26:46;7.68;;;6.05;;
11018;SDS011;5563;52.296;6.806;2023-06-10T05:29:15;7.38;;;5.38;;
11018;SDS011;5563;52.296;6.806;2023-06-10T05:31:48;7.22;;;5.90;;
11018;SDS011;5563;52.296;6.806;2023-06-10T05:34:15;7.05;;;5.90;;
11018;SDS011;5563;52.296;6.806;2023-06-10T05:36:55;6.95;;;6.15;;
11018;SDS011;5563;52.296;6.806;2023-06-10T05:39:22;7.05;;;5.75;;
11018;SDS011;5563;52.296;6.806;2023-06-10T05:41:56;6.85;;;5.63;;
11018;SDS011;5563;52.296;6.806;2023-06-10T05:44:32;10.10;;;5.43;;
11018;SDS011;5563;52.296;6.806;2023-06-10T05:46:59;6.63;;;5.88;;
11018;SDS011;5563;52.296;6.806;2023-06-10T05:49:33;7.13;;;5.47;;
11018;SDS011;5563;52.296;6.806;2023-06-10T05:52:00;7.70;;;5.97;;
11018;SDS011;5563;52.296;6.806;2023-06-10T05:54:34;8.18;;;5.90;;
11018;SDS011;5563;52.296;6.806;2023-06-10T05:57:01;8.45;;;5.30;;
11018;SDS011;5563;52.296;6.806;2023-06-10T05:59:36;5.95;;;5.10;;
11018;SDS011;5563;52.296;6.806;2023-06-10T06:02:09;8.32;;;5.47;;
11018;SDS011;5563;52.296;6.806;2023-06-10T06:04:36;6.47;;;5.75;;
11018;SDS011;5563;52.296;6.806;2023-06-10T06:07:10;6.50;;;5.53;;
11018;SDS011;5563;52.296;6.806;2023-06-10T06:09:37;10.75;;;5.65;;
11018;SDS011;5563;52.296;6.806;2023-06-10T06:12:10;6.30;;;5.30;;
11018;SDS011;5563;52.296;6.806;2023-06-10T06:14:37;5.93;;;5.00;;
11018;SDS011;5563;52.296;6.806;2023-06-10T06:17:14;7.72;;;5.30;;
11018;SDS011;5563;52.296;6.806;2023-06-10T06:19:52;6.20;;;5.00;;
11018;SDS011;5563;52.296;6.806;2023-06-10T06:22:26;7.13;;;5.18;;
11018;SDS011;5563;52.296;6.806;2023-06-10T06:24:55;10.15;;;5.43;;
11018;SDS011;5563;52.296;6.806;2023-06-10T06:27:28;7.50;;;5.35;;
11018;SDS011;5563;52.296;6.806;2023-06-10T06:30:01;6.25;;;5.35;;
11018;SDS011;5563;52.296;6.806;2023-06-10T06:32:35;6.15;;;5.22;;
11018;SDS011;5563;52.296;6.806;2023-06-10T06:35:09;6.70;;;5.30;;
11018;SDS011;5563;52.296;6.806;2023-06-10T06:37:43;8.23;;;5.55;;
11018;SDS011;5563;52.296;6.806;2023-06-10T06:40:10;7.68;;;4.88;;
11018;SDS011;5563;52.296;6.806;2023-06-10T06:42:50;7.30;;;5.00;;
11018;SDS011;5563;52.296;6.806;2023-06-10T06:45:17;8.63;;;5.38;;
11018;SDS011;5563;52.296;6.806;2023-06-10T06:47:51;8.65;;;4.82;;
11018;SDS011;5563;52.296;6.806;2023-06-10T06:50:24;6.97;;;4.72;;
11018;SDS011;5563;52.296;6.806;2023-06-10T06:52:51;6.53;;;5.38;;
11018;SDS011;5563;52.296;6.806;2023-06-10T06:55:29;5.70;;;4.63;;
11018;SDS011;5563;52.296;6.806;2023-06-10T06:57:56;7.38;;;4.65;;
11018;SDS011;5563;52.296;6.806;2023-06-10T07:00:31;7.50;;;5.38;;
11018;SDS011;5563;52.296;6.806;2023-06-10T07:02:58;5.88;;;4.65;;
11018;SDS011;5563;52.296;6.806;2023-06-10T07:05:32;10.18;;;5.47;;
11018;SDS011;5563;52.296;6.806;2023-06-10T07:08:00;6.80;;;4.90;;
11018;SDS011;5563;52.296;6.806;2023-06-10T07:10:35;6.55;;;4.88;;
11018;SDS011;5563;52.296;6.806;2023-06-10T07:13:03;6.43;;;4.40;;
11018;SDS011;5563;52.296;6.806;2023-06-10T07:15:41;6.13;;;4.70;;
11018;SDS011;5563;52.296;6.806;2023-06-10T07:18:08;7.07;;;5.13;;
11018;SDS011;5563;52.296;6.806;2023-06-10T07:20:42;5.10;;;4.55;;
11018;SDS011;5563;52.296;6.806;2023-06-10T07:23:10;7.78;;;4.53;;
11018;SDS011;5563;52.296;6.806;2023-06-10T07:25:57;7.32;;;4.57;;
11018;SDS011;5563;52.296;6.806;2023-06-10T07:28:25;6.90;;;4.72;;
11018;SDS011;5563;52.296;6.806;2023-06-10T07:31:02;6.60;;;4.68;;
11018;SDS011;5563;52.296;6.806;2023-06-10T07:33:31;6.78;;;4.90;;
11018;SDS011;5563;52.296;6.806;2023-06-10T07:36:09;4.63;;;4.22;;
11018;SDS011;5563;52.296;6.806;2023-06-10T07:38:36;8.70;;;5.38;;
11018;SDS011;5563;52.296;6.806;2023-06-10T07:41:03;6.90;;;4.47;;
11018;SDS011;5563;52.296;6.806;2023-06-10T07:43:38;7.80;;;4.40;;
11018;SDS011;5563;52.296;6.806;2023-06-10T07:46:12;7.60;;;4.70;;
11018;SDS011;5563;52.296;6.806;2023-06-10T07:48:46;7.82;;;5.10;;
11018;SDS011;5563;52.296;6.806;2023-06-10T07:51:20;8.05;;;4.60;;
11018;SDS011;5563;52.296;6.806;2023-06-10T07:53:54;4.88;;;4.35;;
11018;SDS011;5563;52.296;6.806;2023-06-10T07:56:21;7.97;;;4.78;;
11018;SDS011;5563;52.296;6.806;2023-06-10T07:58:54;7.68;;;4.57;;
11018;SDS011;5563;52.296;6.806;2023-06-10T08:01:22;8.23;;;4.95;;
11018;SDS011;5563;52.296;6.806;2023-06-10T08:03:56;6.20;;;4.45;;
11018;SDS011;5563;52.296;6.806;2023-06-10T08:06:23;6.63;;;4.43;;
11018;SDS011;5563;52.296;6.806;2023-06-10T08:08:56;7.22;;;4.75;;
11018;SDS011;5563;52.296;6.806;2023-06-10T08:11:23;4.43;;;3.90;;
11018;SDS011;5563;52.296;6.806;2023-06-10T08:13:56;5.03;;;4.00;;
11018;SDS011;5563;52.296;6.806;2023-06-10T08:16:23;5.20;;;3.83;;
11018;SDS011;5563;52.296;6.806;2023-06-10T08:18:56;5.90;;;3.95;;
11018;SDS011;5563;52.296;6.806;2023-06-10T08:21:29;5.10;;;4.55;;
11018;SDS011;5563;52.296;6.806;2023-06-10T08:23:56;5.18;;;4.60;;
11018;SDS011;5563;52.296;6.806;2023-06-10T08:26:29;4.20;;;3.80;;
11018;SDS011;5563;52.296;6.806;2023-06-10T08:28:56;6.00;;;4.57;;
11018;SDS011;5563;52.296;6.806;2023-06-10T08:31:30;6.38;;;5.78;;
11018;SDS011;5563;52.296;6.806;2023-06-10T08:33:57;5.25;;;4.60;;
11018;SDS011;5563;52.296;6.806;2023-06-10T08:36:30;6.25;;;4.18;;
11018;SDS011;5563;52.296;6.806;2023-06-10T08:38:57;6.30;;;4.57;;
11018;SDS011;5563;52.296;6.806;2023-06-10T08:41:37;6.93;;;4.10;;
11018;SDS011;5563;52.296;6.806;2023-06-10T08:44:29;7.65;;;4.60;;
11018;SDS011;5563;52.296;6.806;2023-06-10T08:47:04;6.68;;;4.30;;
11018;SDS011;5563;52.296;6.806;2023-06-10T08:49:42;6.38;;;4.57;;
11018;SDS011;5563;52.296;6.806;2023-06-10T08:52:19;5.80;;;3.75;;
11018;SDS011;5563;52.296;6.806;2023-06-10T08:54:56;5.43;;;4.70;;
11018;SDS011;5563;52.296;6.806;2023-06-10T08:57:32;5.65;;;4.45;;
11018;SDS011;5563;52.296;6.806;2023-06-10T09:00:06;5.15;;;4.15;;
11018;SDS011;5563;52.296;6.806;2023-06-10T09:02:40;5.18;;;3.95;;
11018;SDS011;5563;52.296;6.806;2023-06-10T09:05:07;4.35;;;3.95;;
11018;SDS011;5563;52.296;6.806;2023-06-10T09:07:36;6.57;;;4.07;;
11018;SDS011;5563;52.296;6.806;2023-06-10T09:10:10;6.40;;;4.00;;
11018;SDS011;5563;52.296;6.806;2023-06-10T09:12:38;7.07;;;4.40;;
11018;SDS011;5563;52.296;6.806;2023-06-10T09:15:11;6.30;;;3.85;;
11018;SDS011;5563;52.296;6.806;2023-06-10T09:17:41;5.43;;;4.30;;
11018;SDS011;5563;52.296;6.806;2023-06-10T09:20:14;5.60;;;4.32;;
11018;SDS011;5563;52.296;6.806;2023-06-10T09:22:42;5.70;;;4.13;;
11018;SDS011;5563;52.296;6.806;2023-06-10T09:25:16;5.03;;;4.07;;
11018;SDS011;5563;52.296;6.806;2023-06-10T09:27:48;6.38;;;4.47;;
11018;SDS011;5563;52.296;6.806;2023-06-10T09:30:24;5.63;;;3.90;;
11018;SDS011;5563;52.296;6.806;2023-06-10T09:32:53;6.63;;;3.92;;
11018;SDS011;5563;52.296;6.806;2023-06-10T09:35:29;6.32;;;4.10;;
11018;SDS011;5563;52.296;6.806;2023-06-10T09:38:03;4.72;;;4.30;;
11018;SDS011;5563;52.296;6.806;2023-06-10T09:40:32;5.60;;;4.13;;
11018;SDS011;5563;52.296;6.806;2023-06-10T09:43:11;5.88;;;3.92;;
11018;SDS011;5563;52.296;6.806;2023-06-10T09:45:49;4.65;;;4.07;;
11018;SDS011;5563;52.296;6.806;2023-06-10T09:48:19;5.60;;;3.90;;
11018;SDS011;5563;52.296;6.806;2023-06-10T09:50:53;5.80;;;4.15;;
11018;SDS011;5563;52.296;6.806;2023-06-10T09:53:20;5.00;;;4.50;;
11018;SDS011;5563;52.296;6.806;2023-06-10T09:55:47;4.75;;;4.28;;
11018;SDS011;5563;52.296;6.806;2023-06-10T09:58:33;4.18;;;3.78;;
11018;SDS011;5563;52.296;6.806;2023-06-10T10:01:04;6.32;;;4.20;;
11018;SDS011;5563;52.296;6.806;2023-06-10T10:03:44;5.35;;;4.10;;
11018;SDS011;5563;52.296;6.806;2023-06-10T10:06:17;5.20;;;4.07;;
11018;SDS011;5563;52.296;6.806;2023-06-10T10:08:51;6.57;;;4.05;;
11018;SDS011;5563;52.296;6.806;2023-06-10T10:11:22;6.82;;;5.50;;
11018;SDS011;5563;52.296;6.806;2023-06-10T10:13:56;5.55;;;4.00;;
11018;SDS011;5563;52.296;6.806;2023-06-10T10:16:32;4.10;;;3.70;;
11018;SDS011;5563;52.296;6.806;2023-06-10T10:19:12;4.57;;;3.90;;
11018;SDS011;5563;52.296;6.806;2023-06-10T10:21:59;4.85;;;3.95;;
11018;SDS011;5563;52.296;6.806;2023-06-10T10:24:38;4.88;;;4.20;;
11018;SDS011;5563;52.296;6.806;2023-06-10T10:27:20;4.47;;;4.07;;
11018;SDS011;5563;52.296;6.806;2023-06-10T10:29:59;5.93;;;4.38;;
11018;SDS011;5563;52.296;6.806;2023-06-10T10:32:45;5.25;;;3.65;;
11018;SDS011;5563;52.296;6.806;2023-06-10T10:35:32;4.95;;;4.53;;
11018;SDS011;5563;52.296;6.806;2023-06-10T10:38:00;5.50;;;4.05;;
11018;SDS011;5563;52.296;6.806;2023-06-10T10:40:35;4.85;;;4.30;;
11018;SDS011;5563;52.296;6.806;2023-06-10T10:43:09;5.32;;;4.28;;
11018;SDS011;5563;52.296;6.806;2023-06-10T10:45:59;4.55;;;3.72;;
11018;SDS011;5563;52.296;6.806;2023-06-10T10:48:33;5.50;;;4.32;;
11018;SDS011;5563;52.296;6.806;2023-06-10T10:51:10;7.32;;;4.15;;
11018;SDS011;5563;52.296;6.806;2023-06-10T10:53:38;4.70;;;3.75;;
11018;SDS011;5563;52.296;6.806;2023-06-10T10:56:13;5.10;;;3.97;;
11018;SDS011;5563;52.296;6.806;2023-06-10T10:58:41;5.47;;;4.40;;
11018;SDS011;5563;52.296;6.806;2023-06-10T11:01:15;5.95;;;5.32;;
11018;SDS011;5563;52.296;6.806;2023-06-10T11:03:43;5.18;;;4.03;;
11018;SDS011;5563;52.296;6.806;2023-06-10T11:06:20;4.57;;;3.80;;
11018;SDS011;5563;52.296;6.806;2023-06-10T11:08:54;4.30;;;3.90;;
11018;SDS011;5563;52.296;6.806;2023-06-10T11:11:26;6.55;;;4.15;;
11018;SDS011;5563;52.296;6.806;2023-06-10T11:16:28;5.65;;;4.00;;
11018;SDS011;5563;52.296;6.806;2023-06-10T11:19:02;5.18;;;3.78;;
11018;SDS011;5563;52.296;6.806;2023-06-10T11:21:29;4.75;;;3.97;;
11018;SDS011;5563;52.296;6.806;2023-06-10T11:24:12;4.25;;;3.85;;
11018;SDS011;5563;52.296;6.806;2023-06-10T11:26:45;7.15;;;3.83;;
11018;SDS011;5563;52.296;6.806;2023-06-10T11:29:19;4.47;;;3.90;;
11018;SDS011;5563;52.296;6.806;2023-06-10T11:31:50;4.32;;;3.95;;
11018;SDS011;5563;52.296;6.806;2023-06-10T11:34:24;4.65;;;3.60;;
11018;SDS011;5563;52.296;6.806;2023-06-10T11:36:53;4.60;;;3.80;;
11018;SDS011;5563;52.296;6.806;2023-06-10T11:39:26;5.90;;;3.53;;
11018;SDS011;5563;52.296;6.806;2023-06-10T11:42:00;5.20;;;3.70;;
11018;SDS011;5563;52.296;6.806;2023-06-10T11:44:34;3.80;;;3.45;;
11018;SDS011;5563;52.296;6.806;2023-06-10T11:47:10;4.47;;;3.58;;
11018;SDS011;5563;52.296;6.806;2023-06-10T11:49:44;5.53;;;3.78;;
11018;SDS011;5563;52.296;6.806;2023-06-10T11:52:22;4.20;;;3.80;;
11018;SDS011;5563;52.296;6.806;2023-06-10T11:55:00;3.97;;;3.67;;
11018;SDS011;5563;52.296;6.806;2023-06-10T11:57:27;4.25;;;3.30;;
11018;SDS011;5563;52.296;6.806;2023-06-10T12:00:09;4.18;;;3.10;;
11018;SDS011;5563;52.296;6.806;2023-06-10T12:02:37;3.67;;;3.30;;
11018;SDS011;5563;52.296;6.806;2023-06-10T12:05:11;3.65;;;3.35;;
11018;SDS011;5563;52.296;6.806;2023-06-10T12:07:39;3.60;;;3.30;;
11018;SDS011;5563;52.296;6.806;2023-06-10T12:10:12;3.95;;;3.55;;
11018;SDS011;5563;52.296;6.806;2023-06-10T12:12:53;5.88;;;4.10;;
11018;SDS011;5563;52.296;6.806;2023-06-10T12:15:23;4.75;;;3.75;;
11018;SDS011;5563;52.296;6.806;2023-06-10T12:17:58;3.97;;;3.58;;
11018;SDS011;5563;52.296;6.806;2023-06-10T12:20:32;4.60;;;3.55;;
11018;SDS011;5563;52.296;6.806;2023-06-10T12:23:09;4.22;;;3.83;;
11018;SDS011;5563;52.296;6.806;2023-06-10T12:25:37;3.88;;;3.42;;
11018;SDS011;5563;52.296;6.806;2023-06-10T12:28:11;4.60;;;3.80;;
11018;SDS011;5563;52.296;6.806;2023-06-10T12:30:46;4.78;;;3.83;;
11018;SDS011;5563;52.296;6.806;2023-06-10T12:33:19;4.57;;;3.50;;
11018;SDS011;5563;52.296;6.806;2023-06-10T12:35:54;4.20;;;3.60;;
11018;SDS011;5563;52.296;6.806;2023-06-10T12:38:29;4.07;;;3.67;;
11018;SDS011;5563;52.296;6.806;2023-06-10T12:41:07;3.92;;;3.63;;
11018;SDS011;5563;52.296;6.806;2023-06-10T12:43:41;3.95;;;3.55;;
11018;SDS011;5563;52.296;6.806;2023-06-10T12:46:23;3.72;;;3.42;;
11018;SDS011;5563;52.296;6.806;2023-06-10T12:48:51;5.05;;;3.63;;
11018;SDS011;5563;52.296;6.806;2023-06-10T12:51:25;4.47;;;3.58;;
11018;SDS011;5563;52.296;6.806;2023-06-10T12:53:59;3.90;;;3.50;;
11018;SDS011;5563;52.296;6.806;2023-06-10T12:56:26;4.40;;;3.97;;
11018;SDS011;5563;52.296;6.806;2023-06-10T12:58:53;4.38;;;4.03;;
11018;SDS011;5563;52.296;6.806;2023-06-10T13:01:27;5.82;;;4.10;;
11018;SDS011;5563;52.296;6.806;2023-06-10T13:03:54;4.68;;;3.65;;
11018;SDS011;5563;52.296;6.806;2023-06-10T13:06:29;4.18;;;3.78;;
11018;SDS011;5563;52.296;6.806;2023-06-10T13:08:59;4.18;;;3.78;;
11018;SDS011;5563;52.296;6.806;2023-06-10T13:11:32;4.25;;;3.95;;
11018;SDS011;5563;52.296;6.806;2023-06-10T13:14:00;6.22;;;4.43;;
11018;SDS011;5563;52.296;6.806;2023-06-10T13:16:35;4.30;;;3.90;;
11018;SDS011;5563;52.296;6.806;2023-06-10T13:19:10;5.47;;;4.18;;
11018;SDS011;5563;52.296;6.806;2023-06-10T13:21:44;5.22;;;3.83;;
11018;SDS011;5563;52.296;6.806;2023-06-10T13:24:18;5.13;;;4.18;;
11018;SDS011;5563;52.296;6.806;2023-06-10T13:26:53;4.28;;;3.88;;
11018;SDS011;5563;52.296;6.806;2023-06-10T13:29:21;4.38;;;3.97;;
11018;SDS011;5563;52.296;6.806;2023-06-10T13:31:55;4.10;;;3.70;;
11018;SDS011;5563;52.296;6.806;2023-06-10T13:34:30;4.10;;;3.70;;
11018;SDS011;5563;52.296;6.806;2023-06-10T13:36:57;3.60;;;3.30;;
11018;SDS011;5563;52.296;6.806;2023-06-10T13:39:31;4.53;;;4.15;;
11018;SDS011;5563;52.296;6.806;2023-06-10T13:41:58;4.00;;;3.65;;
11018;SDS011;5563;52.296;6.806;2023-06-10T13:44:41;5.53;;;4.28;;
11018;SDS011;5563;52.296;6.806;2023-06-10T13:47:07;5.07;;;4.07;;
11018;SDS011;5563;52.296;6.806;2023-06-10T13:49:41;4.32;;;3.60;;
11018;SDS011;5563;52.296;6.806;2023-06-10T13:52:08;4.22;;;3.83;;
11018;SDS011;5563;52.296;6.806;2023-06-10T13:54:42;5.15;;;3.92;;
11018;SDS011;5563;52.296;6.806;2023-06-10T13:57:09;4.47;;;4.07;;
11018;SDS011;5563;52.296;6.806;2023-06-10T13:59:44;4.07;;;3.67;;
11018;SDS011;5563;52.296;6.806;2023-06-10T14:02:11;4.20;;;3.80;;
11018;SDS011;5563;52.296;6.806;2023-06-10T14:04:45;4.50;;;4.13;;
11018;SDS011;5563;52.296;6.806;2023-06-10T14:07:14;4.47;;;4.07;;
11018;SDS011;5563;52.296;6.806;2023-06-10T14:09:48;5.28;;;4.07;;
11018;SDS011;5563;52.296;6.806;2023-06-10T14:12:22;4.68;;;4.07;;
11018;SDS011;5563;52.296;6.806;2023-06-10T14:14:49;4.80;;;4.07;;
11018;SDS011;5563;52.296;6.806;2023-06-10T14:17:23;4.50;;;4.00;;
11018;SDS011;5563;52.296;6.806;2023-06-10T14:19:51;5.03;;;4.53;;
11018;SDS011;5563;52.296;6.806;2023-06-10T14:22:25;4.50;;;4.10;;
11018;SDS011;5563;52.296;6.806;2023-06-10T14:24:52;4.65;;;3.72;;
11018;SDS011;5563;52.296;6.806;2023-06-10T14:27:26;4.57;;;3.78;;
11018;SDS011;5563;52.296;6.806;2023-06-10T14:29:53;5.07;;;4.10;;
11018;SDS011;5563;52.296;6.806;2023-06-10T14:32:20;4.40;;;4.10;;
11018;SDS011;5563;52.296;6.806;2023-06-10T14:34:53;6.22;;;4.45;;
11018;SDS011;5563;52.296;6.806;2023-06-10T14:37:27;5.20;;;4.70;;
11018;SDS011;5563;52.296;6.806;2023-06-10T14:39:54;5.80;;;4.35;;
11018;SDS011;5563;52.296;6.806;2023-06-10T14:42:28;5.13;;;3.92;;
11018;SDS011;5563;52.296;6.806;2023-06-10T14:45:08;4.97;;;4.10;;
11018;SDS011;5563;52.296;6.806;2023-06-10T14:47:37;4.93;;;4.47;;
11018;SDS011;5563;52.296;6.806;2023-06-10T14:50:10;5.03;;;4.05;;
11018;SDS011;5563;52.296;6.806;2023-06-10T14:52:37;4.28;;;3.97;;
11018;SDS011;5563;52.296;6.806;2023-06-10T14:55:10;5.13;;;3.88;;
11018;SDS011;5563;52.296;6.806;2023-06-10T14:57:37;4.30;;;3.90;;
11018;SDS011;5563;52.296;6.806;2023-06-10T15:00:11;5.28;;;4.60;;
11018;SDS011;5563;52.296;6.806;2023-06-10T15:02:41;5.50;;;4.30;;
11018;SDS011;5563;52.296;6.806;2023-06-10T15:05:15;4.90;;;4.40;;
11018;SDS011;5563;52.296;6.806;2023-06-10T15:07:43;4.85;;;4.43;;
11018;SDS011;5563;52.296;6.806;2023-06-10T15:10:16;4.78;;;4.25;;
11018;SDS011;5563;52.296;6.806;2023-06-10T15:12:48;5.55;;;4.28;;
11018;SDS011;5563;52.296;6.806;2023-06-10T15:15:28;5.55;;;4.47;;
11018;SDS011;5563;52.296;6.806;2023-06-10T15:17:55;4.70;;;4.30;;
11018;SDS011;5563;52.296;6.806;2023-06-10T15:20:28;5.93;;;4.68;;
11018;SDS011;5563;52.296;6.806;2023-06-10T15:22:55;4.60;;;4.20;;
11018;SDS011;5563;52.296;6.806;2023-06-10T15:25:28;4.97;;;4.40;;
11018;SDS011;5563;52.296;6.806;2023-06-10T15:28:03;4.70;;;4.28;;
11018;SDS011;5563;52.296;6.806;2023-06-10T15:30:31;4.40;;;4.00;;
11018;SDS011;5563;52.296;6.806;2023-06-10T15:33:04;5.05;;;4.57;;
11018;SDS011;5563;52.296;6.806;2023-06-10T15:35:33;5.25;;;4.75;;
11018;SDS011;5563;52.296;6.806;2023-06-10T15:38:06;4.80;;;4.30;;